createdAt,value
2023-01-02T00:01:18.663Z,30.50
2023-01-02T00:03:45.615Z,31.40
2023-01-02T00:06:13.269Z,30.90
2023-01-02T00:08:39.939Z,32.00
2023-01-02T00:11:06.613Z,29.50
2023-01-02T00:13:33.329Z,29.30
2023-01-02T00:16:00.147Z,30.30
2023-01-02T00:18:26.909Z,30.70
2023-01-02T00:20:53.776Z,29.60
2023-01-02T00:23:20.532Z,30.80
2023-01-02T00:25:50.300Z,32.70
2023-01-02T00:28:17.045Z,30.50
2023-01-02T00:30:43.840Z,29.60
2023-01-02T00:33:10.561Z,30.40
2023-01-02T00:35:38.395Z,30.40
2023-01-02T00:38:05.758Z,30.20
2023-01-02T00:40:32.485Z,31.10
2023-01-02T00:42:59.333Z,30.60
2023-01-02T00:45:26.458Z,30.30
2023-01-02T00:47:53.696Z,29.40
2023-01-02T00:50:21.428Z,29.80
2023-01-02T00:52:48.141Z,33.10
2023-01-02T00:55:14.843Z,32.40
2023-01-02T00:57:41.527Z,30.80
2023-01-02T01:00:08.656Z,33.40
2023-01-02T01:02:35.406Z,32.10
2023-01-02T01:05:02.357Z,29.70
2023-01-02T01:07:29.613Z,29.40
2023-01-02T01:09:56.302Z,32.90
2023-01-02T01:12:22.971Z,33.10
2023-01-02T01:14:49.570Z,31.50
2023-01-02T01:19:43.024Z,32.10
2023-01-02T01:22:11.898Z,29.60
2023-01-02T01:24:38.568Z,30.10
2023-01-02T01:27:05.231Z,32.60
2023-01-02T01:29:31.913Z,30.90
2023-01-02T01:31:58.714Z,29.90
2023-01-02T01:34:25.539Z,30.40
2023-01-02T01:36:52.174Z,29.00
2023-01-02T01:39:18.862Z,29.70
2023-01-02T01:41:46.133Z,29.10
2023-01-02T01:44:41.369Z,29.10
2023-01-02T01:47:34.131Z,30.70
2023-01-02T01:50:05.925Z,32.30
2023-01-02T01:52:35.363Z,31.20
2023-01-02T01:55:21.757Z,29.40
2023-01-02T01:58:01.262Z,31.40
2023-01-02T02:00:28.936Z,31.00
2023-01-02T02:03:05.167Z,30.10
2023-01-02T02:05:32.907Z,32.80
2023-01-02T02:08:10.526Z,30.40
2023-01-02T02:10:38.556Z,32.40
2023-01-02T02:13:05.301Z,31.10
2023-01-02T02:16:00.785Z,31.90
2023-01-02T02:18:54.952Z,29.10
2023-01-02T02:21:46.719Z,31.90
2023-01-02T02:24:50.777Z,32.60
2023-01-02T02:27:41.109Z,34.10
2023-01-02T02:30:10.723Z,32.00
2023-01-02T02:32:48.035Z,30.50
2023-01-02T02:35:44.080Z,28.90
2023-01-02T02:38:35.721Z,31.30
2023-01-02T02:41:17.363Z,33.70
2023-01-02T02:44:12.510Z,32.20
2023-01-02T02:46:52.049Z,33.50
2023-01-02T02:50:04.014Z,31.80
2023-01-02T02:56:45.216Z,31.90
2023-01-02T02:59:12.231Z,34.60
2023-01-02T03:01:39.145Z,33.30
2023-01-02T03:04:32.191Z,31.90
2023-01-02T03:07:08.216Z,31.30
2023-01-02T03:09:46.819Z,30.00
2023-01-02T03:15:12.241Z,33.50
2023-01-02T03:17:55.683Z,34.10
2023-01-02T03:20:27.880Z,31.20
2023-01-02T03:23:01.280Z,32.90
2023-01-02T03:25:28.897Z,31.70
2023-01-02T03:27:58.994Z,30.10
2023-01-02T03:30:25.759Z,32.50
2023-01-02T03:32:58.124Z,31.60
2023-01-02T03:35:32.980Z,32.20
2023-01-02T03:37:59.909Z,33.70
2023-01-02T03:40:32.397Z,32.40
2023-01-02T03:43:09.026Z,29.30
2023-01-02T03:45:46.115Z,29.50
2023-01-02T03:48:21.836Z,32.00
2023-01-02T03:50:52.761Z,31.40
2023-01-02T03:53:20.737Z,33.00
2023-01-02T03:56:05.643Z,32.00
2023-01-02T03:58:41.205Z,28.30
2023-01-02T04:01:13.038Z,30.10
2023-01-02T04:03:47.539Z,32.30
2023-01-02T04:06:18.615Z,31.80
2023-01-02T04:08:50.866Z,32.30
2023-01-02T04:11:20.528Z,31.10
2023-01-02T04:13:53.737Z,32.80
2023-01-02T04:16:24.294Z,30.10
2023-01-02T04:19:08.701Z,28.60
2023-01-02T04:21:39.099Z,33.10
2023-01-02T04:24:20.083Z,34.70
2023-01-02T04:27:05.346Z,32.50
2023-01-02T04:29:32.290Z,33.10
2023-01-02T04:32:23.165Z,31.20
2023-01-02T04:34:52.178Z,30.40
2023-01-02T04:37:35.025Z,33.20
2023-01-02T04:40:13.876Z,33.90
2023-01-02T04:42:40.849Z,35.00
2023-01-02T04:45:08.403Z,34.90
2023-01-02T04:47:34.991Z,32.90
2023-01-02T04:52:32.060Z,30.00
2023-01-02T04:55:02.584Z,32.30
2023-01-02T04:57:29.291Z,33.20
2023-01-02T04:59:55.976Z,32.90
2023-01-02T05:02:22.655Z,31.90
2023-01-02T05:04:49.611Z,29.60
2023-01-02T05:07:16.306Z,28.90
2023-01-02T05:09:43.108Z,29.20
2023-01-02T05:12:10.136Z,31.40
2023-01-02T05:14:36.778Z,34.30
2023-01-02T05:17:03.472Z,30.00
2023-01-02T05:19:30.072Z,28.50
2023-01-02T05:24:42.275Z,28.70
2023-01-02T05:27:09.033Z,31.80
2023-01-02T05:29:35.769Z,29.80
2023-01-02T05:32:02.416Z,30.80
2023-01-02T05:34:29.242Z,28.50
2023-01-02T05:36:56.184Z,28.20
2023-01-02T05:39:22.888Z,27.00
2023-01-02T05:41:49.669Z,28.40
2023-01-02T05:44:16.509Z,26.80
2023-01-02T05:46:44.237Z,28.20
2023-01-02T05:49:11.630Z,27.90
2023-01-02T05:51:38.647Z,27.60
2023-01-02T05:54:05.617Z,25.40
2023-01-02T05:56:32.465Z,25.80
2023-01-02T05:58:59.195Z,26.90
2023-01-02T06:01:28.969Z,27.60
2023-01-02T06:03:58.925Z,27.10
2023-01-02T06:06:30.801Z,26.80
2023-01-02T06:09:00.051Z,27.00
2023-01-02T06:11:30.205Z,29.00
2023-01-02T06:13:57.790Z,30.10
2023-01-02T06:16:25.398Z,27.00
2023-01-02T06:18:53.006Z,27.60
2023-01-02T06:21:22.040Z,28.70
2023-01-02T06:23:53.738Z,27.80
2023-01-02T06:26:21.620Z,30.30
2023-01-02T06:28:56.089Z,29.30
2023-01-02T06:31:29.679Z,28.20
2023-01-02T06:33:58.624Z,30.20
2023-01-02T06:36:26.822Z,28.20
2023-01-02T06:38:53.475Z,26.10
2023-01-02T06:41:20.361Z,28.80
2023-01-02T06:43:49.295Z,31.50
2023-01-02T06:46:18.082Z,29.60
2023-01-02T06:48:45.713Z,29.80
2023-01-02T06:51:18.564Z,29.40
2023-01-02T06:53:45.860Z,27.90
2023-01-02T06:56:15.750Z,30.00
2023-01-02T06:58:42.626Z,30.90
2023-01-02T07:01:15.251Z,30.10
2023-01-02T07:03:42.052Z,29.80
2023-01-02T07:06:12.828Z,31.70
2023-01-02T07:08:39.995Z,29.60
2023-01-02T07:11:18.340Z,27.50
2023-01-02T07:13:46.535Z,29.70
2023-01-02T07:16:15.660Z,32.50
2023-01-02T07:18:42.897Z,30.60
2023-01-02T07:21:11.158Z,31.50
2023-01-02T07:23:38.261Z,30.70
2023-01-02T07:26:06.414Z,29.20
2023-01-02T07:28:34.113Z,29.40
2023-01-02T07:31:02.863Z,30.50
2023-01-02T07:33:30.714Z,31.30
2023-01-02T07:36:01.871Z,30.90
2023-01-02T07:38:28.731Z,31.00
2023-01-02T07:40:55.684Z,29.90
2023-01-02T07:43:22.408Z,26.90
2023-01-02T07:45:50.737Z,31.40
2023-01-02T07:48:18.257Z,30.60
2023-01-02T07:50:45.739Z,29.50
2023-01-02T07:53:12.752Z,30.00
2023-01-02T07:55:39.446Z,30.90
2023-01-02T07:58:07.505Z,28.00
2023-01-02T08:00:34.271Z,28.40
2023-01-02T08:03:01.371Z,30.60
2023-01-02T08:05:28.037Z,30.60
2023-01-02T08:07:54.763Z,31.60
2023-01-02T08:10:21.548Z,29.80
2023-01-02T08:12:48.387Z,31.70
2023-01-02T08:15:15.159Z,28.60
2023-01-02T08:17:41.796Z,27.80
2023-01-02T08:22:36.227Z,31.40
2023-01-02T08:25:03.218Z,32.10
2023-01-02T08:27:30.022Z,34.30
2023-01-02T08:29:56.705Z,28.90
2023-01-02T08:32:23.476Z,30.00
2023-01-02T08:34:50.454Z,27.80
2023-01-02T08:37:17.341Z,30.50
2023-01-02T08:39:44.055Z,32.10
2023-01-02T08:46:42.507Z,31.70
2023-01-02T08:49:10.184Z,29.30
2023-01-02T08:51:36.971Z,30.10
2023-01-02T08:58:11.525Z,32.10
2023-01-02T09:04:51.737Z,30.10
2023-01-02T09:07:18.349Z,29.40
2023-01-02T09:09:45.202Z,28.70
2023-01-02T09:12:11.949Z,32.20
2023-01-02T09:14:39.348Z,32.80
2023-01-02T09:17:06.150Z,31.80
2023-01-02T09:19:32.929Z,30.90
2023-01-02T09:22:01.551Z,30.20
2023-01-02T09:24:28.926Z,28.40
2023-01-02T09:26:55.580Z,31.10
2023-01-02T09:29:22.316Z,32.90
2023-01-02T09:31:49.029Z,32.30
2023-01-02T09:34:15.773Z,31.30
2023-01-02T09:41:11.074Z,28.90
2023-01-02T09:43:45.831Z,30.80
2023-01-02T09:46:32.624Z,30.50
2023-01-02T09:53:14.127Z,31.10
2023-01-02T09:55:55.376Z,28.80
2023-01-02T09:58:21.956Z,29.00
2023-01-02T10:05:42.493Z,31.30
2023-01-02T10:13:00.685Z,27.10
2023-01-02T10:15:30.866Z,28.90
2023-01-02T10:18:29.020Z,28.90
2023-01-02T10:21:02.157Z,28.40
2023-01-02T10:30:22.813Z,28.70
2023-01-02T10:33:14.015Z,27.00
2023-01-02T10:35:56.860Z,27.00
2023-01-02T10:38:23.902Z,28.10
2023-01-02T10:40:51.839Z,29.10
2023-01-02T10:43:18.742Z,28.10
2023-01-02T10:45:45.531Z,29.70
2023-01-02T10:48:12.832Z,28.40
2023-01-02T10:50:48.641Z,29.70
2023-01-02T10:53:39.679Z,30.40
2023-01-02T10:56:15.521Z,29.70
2023-01-02T10:58:48.756Z,29.20
2023-01-02T11:01:21.695Z,31.10
2023-01-02T11:03:54.330Z,27.80
2023-01-02T11:06:30.040Z,25.60
2023-01-02T11:09:03.450Z,30.90
2023-01-02T11:11:32.531Z,28.00
2023-01-02T11:14:07.818Z,31.00
2023-01-02T11:16:39.725Z,29.50
2023-01-02T11:19:09.347Z,29.80
2023-01-02T11:21:40.036Z,28.00
2023-01-02T11:24:15.796Z,29.50
2023-01-02T11:26:45.210Z,31.00
2023-01-02T11:33:34.434Z,29.40
2023-01-02T11:36:04.064Z,32.20
2023-01-02T11:39:18.565Z,30.20
2023-01-02T11:42:28.649Z,29.10
2023-01-02T11:45:15.362Z,28.50
2023-01-02T11:47:51.019Z,29.80
2023-01-02T11:50:27.278Z,29.20
2023-01-02T11:53:14.187Z,29.10
2023-01-02T11:55:52.867Z,29.00
2023-01-02T11:58:41.557Z,27.90
2023-01-02T12:01:53.207Z,28.50
2023-01-02T12:04:23.984Z,31.00
2023-01-02T12:07:05.791Z,30.50
2023-01-02T12:09:44.518Z,29.70
2023-01-02T12:12:23.125Z,32.80
2023-01-02T12:17:47.518Z,29.50
2023-01-02T12:20:23.223Z,30.60
2023-01-02T12:23:15.807Z,30.60
2023-01-02T12:25:56.495Z,31.80
2023-01-02T12:32:50.526Z,29.30
2023-01-02T12:35:49.731Z,30.00
2023-01-02T12:38:50.333Z,32.00
2023-01-02T12:41:17.025Z,31.90
2023-01-02T12:44:06.831Z,30.20
2023-01-02T12:46:55.286Z,31.40
2023-01-02T12:49:54.353Z,30.80
2023-01-02T12:52:40.930Z,29.70
2023-01-02T12:55:35.731Z,31.50
2023-01-02T12:58:11.518Z,31.00
2023-01-02T13:01:07.877Z,29.60
2023-01-02T13:03:46.292Z,31.30
2023-01-02T13:06:45.667Z,28.50
2023-01-02T13:09:32.874Z,30.20
2023-01-02T13:12:10.752Z,29.50
2023-01-02T13:14:42.915Z,29.00
2023-01-02T13:17:17.371Z,30.90
2023-01-02T13:19:52.753Z,29.10
2023-01-02T13:22:31.892Z,29.00
2023-01-02T13:24:59.885Z,27.90
2023-01-02T13:27:27.754Z,27.40
2023-01-02T13:29:54.699Z,28.60
2023-01-02T13:32:30.728Z,27.60
2023-01-02T13:35:02.230Z,30.50
2023-01-02T13:37:30.220Z,28.90
2023-01-02T13:40:00.864Z,32.10
2023-01-02T13:42:52.682Z,28.60
2023-01-02T13:45:25.608Z,27.00
2023-01-02T13:47:56.671Z,27.80
2023-01-02T13:50:30.186Z,30.20
2023-01-02T13:53:07.810Z,28.00
2023-01-02T13:55:37.084Z,29.90
2023-01-02T13:58:17.682Z,28.00
2023-01-02T14:00:56.554Z,26.90
2023-01-02T14:03:23.940Z,27.60
2023-01-02T14:05:58.559Z,29.30
2023-01-02T14:09:06.066Z,27.10
2023-01-02T14:11:55.358Z,28.60
2023-01-02T14:14:44.145Z,28.30
2023-01-02T14:17:29.277Z,31.60
2023-01-02T14:20:26.249Z,28.40
2023-01-02T14:23:15.297Z,25.80
2023-01-02T14:25:48.675Z,28.30
2023-01-02T14:28:29.734Z,27.50
2023-01-02T14:30:59.169Z,27.80
2023-01-02T14:33:36.375Z,28.90
2023-01-02T14:36:08.872Z,31.20
2023-01-02T14:38:43.245Z,27.10
2023-01-02T14:41:53.126Z,26.00
2023-01-02T14:44:20.997Z,29.40
2023-01-02T14:46:49.200Z,26.40
2023-01-02T14:49:25.109Z,27.50
2023-01-02T14:52:06.291Z,29.30
2023-01-02T14:54:58.743Z,26.60
2023-01-02T14:57:32.022Z,26.20
2023-01-02T15:00:02.783Z,26.10
2023-01-02T15:02:38.419Z,25.80
2023-01-02T15:05:13.624Z,26.50
2023-01-02T15:07:51.192Z,26.30
2023-01-02T15:10:20.360Z,26.90
2023-01-02T15:13:04.023Z,28.30
2023-01-02T15:15:43.541Z,25.50
2023-01-02T15:18:32.517Z,27.30
2023-01-02T15:21:10.230Z,29.70
2023-01-02T15:23:42.144Z,27.70
2023-01-02T15:26:31.435Z,27.60
2023-01-02T15:29:07.026Z,27.30
2023-01-02T15:31:34.328Z,28.60
2023-01-02T15:34:01.711Z,27.30
2023-01-02T15:36:40.403Z,25.60
2023-01-02T15:39:20.386Z,27.60
2023-01-02T15:41:49.957Z,27.20
2023-01-02T15:44:43.742Z,26.40
2023-01-02T15:47:12.734Z,29.30
2023-01-02T15:49:42.930Z,26.80
2023-01-02T15:52:30.125Z,26.00
2023-01-02T15:54:57.526Z,26.10
2023-01-02T15:57:28.558Z,27.10
2023-01-02T15:59:56.191Z,26.70
2023-01-02T16:02:43.398Z,28.90
2023-01-02T16:05:16.111Z,27.30
2023-01-02T16:07:50.500Z,29.50
2023-01-02T16:10:21.364Z,26.70
2023-01-02T16:12:57.992Z,30.10
2023-01-02T16:15:29.662Z,30.40
2023-01-02T16:17:57.407Z,32.10
2023-01-02T16:20:26.696Z,30.30
2023-01-02T16:23:08.449Z,28.10
2023-01-02T16:25:43.333Z,27.70
2023-01-02T16:28:35.012Z,26.50
2023-01-02T16:31:24.697Z,27.00
2023-01-02T16:33:51.595Z,29.70
2023-01-02T16:36:22.497Z,27.00
2023-01-02T16:38:58.871Z,27.10
2023-01-02T16:45:48.548Z,24.70
2023-01-02T16:48:20.486Z,27.80
2023-01-02T16:50:50.030Z,26.00
2023-01-02T16:53:20.412Z,29.20
2023-01-02T16:55:47.484Z,28.60
2023-01-02T16:58:14.243Z,27.50
2023-01-02T17:00:43.781Z,24.80
2023-01-02T17:03:16.261Z,24.70
2023-01-02T17:05:46.948Z,25.90
2023-01-02T17:08:29.131Z,27.70
2023-01-02T17:10:57.807Z,28.70
2023-01-02T17:13:25.096Z,30.00
2023-01-02T17:15:51.703Z,28.30
2023-01-02T17:18:18.479Z,27.60
2023-01-02T17:20:45.186Z,25.80
2023-01-02T17:23:12.195Z,24.40
2023-01-02T17:25:46.150Z,25.20
2023-01-02T17:28:13.636Z,25.60
2023-01-02T17:30:45.180Z,25.10
2023-01-02T17:33:12.902Z,25.20
2023-01-02T17:35:39.538Z,24.80
2023-01-02T17:38:06.166Z,22.70
2023-01-02T17:40:33.108Z,22.60
2023-01-02T17:42:59.838Z,24.90
2023-01-02T17:45:26.577Z,24.90
2023-01-02T17:52:07.575Z,23.10
2023-01-02T17:54:35.115Z,22.00
2023-01-02T17:57:02.047Z,20.70
2023-01-02T17:59:28.888Z,22.70
2023-01-02T18:01:55.749Z,24.70
2023-01-02T18:04:22.611Z,24.90
2023-01-02T18:06:49.382Z,23.50
2023-01-02T18:09:16.040Z,23.60
2023-01-02T18:11:42.718Z,22.40
2023-01-02T18:14:18.924Z,21.60
2023-01-02T18:16:46.850Z,21.30
2023-01-02T18:19:17.440Z,24.90
2023-01-02T18:21:45.292Z,23.20
2023-01-02T18:24:14.996Z,25.40
2023-01-02T18:26:41.632Z,24.70
2023-01-02T18:29:22.998Z,23.00
2023-01-02T18:31:51.516Z,22.30
2023-01-02T18:34:47.279Z,21.70
2023-01-02T18:37:19.696Z,21.80
2023-01-02T18:44:21.272Z,20.60
2023-01-02T18:47:04.611Z,21.60
2023-01-02T18:49:41.852Z,20.80
2023-01-02T18:52:11.312Z,22.30
2023-01-02T18:54:42.816Z,23.00
2023-01-02T18:57:22.698Z,22.00
2023-01-02T19:00:01.638Z,24.10
2023-01-02T19:02:54.518Z,21.30
2023-01-02T19:05:25.679Z,20.50
2023-01-02T19:08:00.401Z,22.20
2023-01-02T19:10:36.894Z,22.30
2023-01-02T19:13:20.366Z,24.20
2023-01-02T19:15:57.993Z,23.00
2023-01-02T19:18:24.906Z,23.10
2023-01-02T19:21:18.130Z,22.40
2023-01-02T19:23:46.530Z,22.90
2023-01-02T19:26:33.640Z,24.40
2023-01-02T19:29:09.516Z,23.50
2023-01-02T19:31:54.091Z,23.10
2023-01-02T19:37:40.425Z,22.20
2023-01-02T19:40:20.761Z,23.00
2023-01-02T19:42:49.230Z,22.30
2023-01-02T19:45:21.584Z,22.90
2023-01-02T19:47:49.611Z,26.60
2023-01-02T19:50:22.618Z,24.80
2023-01-02T19:52:49.924Z,24.80
2023-01-02T19:55:18.099Z,24.00
2023-01-02T19:57:46.785Z,23.60
2023-01-02T20:00:16.074Z,22.70
2023-01-02T20:02:45.887Z,23.80
2023-01-02T20:05:20.769Z,25.20
2023-01-02T20:07:49.422Z,25.50
2023-01-02T20:10:16.253Z,25.00
2023-01-02T20:12:43.069Z,24.30
2023-01-02T20:19:30.717Z,24.40
2023-01-02T20:21:57.482Z,22.80
2023-01-02T20:24:24.301Z,23.50
2023-01-02T20:26:51.577Z,21.00
2023-01-02T20:29:18.209Z,21.00
2023-01-02T20:31:44.913Z,24.30
2023-01-02T20:34:11.785Z,23.90
2023-01-02T20:36:38.568Z,23.00
2023-01-02T20:39:05.387Z,24.70
2023-01-02T20:41:32.536Z,22.00
2023-01-02T20:44:00.912Z,20.90
2023-01-02T20:46:27.782Z,21.20
2023-01-02T20:48:54.563Z,22.60
2023-01-02T20:51:21.242Z,23.30
2023-01-02T20:53:47.899Z,22.80
2023-01-02T20:56:14.880Z,21.40
2023-01-02T20:58:41.639Z,22.80
2023-01-02T21:01:08.383Z,23.40
2023-01-02T21:03:35.773Z,24.40
2023-01-02T21:06:02.695Z,22.60
2023-01-02T21:08:29.555Z,23.50
2023-01-02T21:10:56.444Z,23.20
2023-01-02T21:13:23.081Z,21.80
2023-01-02T21:15:51.485Z,22.00
2023-01-02T21:18:27.536Z,22.90
2023-01-02T21:20:57.359Z,22.90
2023-01-02T21:23:25.975Z,19.60
2023-01-02T21:25:53.458Z,20.20
2023-01-02T21:28:21.179Z,18.40
2023-01-02T21:30:48.638Z,17.90
2023-01-02T21:33:18.422Z,20.40
2023-01-02T21:35:46.453Z,20.40
2023-01-02T21:38:14.508Z,19.20
2023-01-02T21:40:41.373Z,20.00
2023-01-02T21:43:08.518Z,20.40
2023-01-02T21:45:35.340Z,20.70
2023-01-02T21:48:02.099Z,21.30
2023-01-02T21:50:28.796Z,20.60
2023-01-02T21:52:55.612Z,19.60
2023-01-02T21:55:23.452Z,22.10
2023-01-02T22:00:39.200Z,19.80
2023-01-02T22:03:06.104Z,19.60
2023-01-02T22:05:32.977Z,20.00
2023-01-02T22:07:59.701Z,21.30
2023-01-02T22:10:27.037Z,21.70
2023-01-02T22:12:54.935Z,21.10
2023-01-02T22:15:22.331Z,23.20
2023-01-02T22:17:49.220Z,19.80
2023-01-02T22:20:16.365Z,21.00
2023-01-02T22:22:43.258Z,20.00
2023-01-02T22:25:10.707Z,20.50
2023-01-02T22:32:03.876Z,20.00
2023-01-02T22:34:34.646Z,21.30
2023-01-02T22:37:01.723Z,22.20
2023-01-02T22:39:28.921Z,23.90
2023-01-02T22:42:49.326Z,19.80
2023-01-02T22:45:07.421Z,20.00
2023-01-02T22:47:37.942Z,20.00
2023-01-02T22:50:11.927Z,20.10
2023-01-02T22:52:39.172Z,19.70
2023-01-02T22:55:17.480Z,21.80
2023-01-02T22:57:47.524Z,21.40
2023-01-02T23:00:22.314Z,21.60
2023-01-02T23:09:42.817Z,20.60
2023-01-02T23:12:09.759Z,22.20
2023-01-02T23:14:36.721Z,22.70
2023-01-02T23:17:22.393Z,25.70
2023-01-02T23:19:49.703Z,24.70
2023-01-02T23:22:17.043Z,26.00
2023-01-02T23:24:43.689Z,25.80
2023-01-02T23:27:12.534Z,24.40
2023-01-02T23:33:59.983Z,25.50
2023-01-02T23:36:26.824Z,25.30
2023-01-02T23:38:53.564Z,24.40
2023-01-02T23:41:20.509Z,25.60
2023-01-02T23:43:47.148Z,24.50
2023-01-02T23:46:13.995Z,24.80
2023-01-02T23:48:40.855Z,24.20
2023-01-02T23:51:07.595Z,24.10
2023-01-02T23:53:34.625Z,24.70
2023-01-02T23:56:02.077Z,23.00
2023-01-02T23:58:29.169Z,25.10
